createdAt,value
2018-12-09T00:01:09.775Z,24.98
2018-12-09T00:03:38.388Z,19.73
2018-12-09T00:06:05.897Z,21.75
2018-12-09T00:08:33.851Z,6.72
2018-12-09T00:11:01.310Z,8.75
2018-12-09T00:13:29.058Z,15.45
2018-12-09T00:15:56.549Z,21.95
2018-12-09T00:18:25.233Z,16.50
2018-12-09T00:20:54.043Z,21.93
2018-12-09T00:23:21.667Z,11.53
2018-12-09T00:25:49.144Z,15.55
2018-12-09T00:28:16.724Z,26.45
2018-12-09T00:30:44.369Z,15.78
2018-12-09T00:33:12.126Z,17.05
2018-12-09T00:35:39.716Z,18.45
2018-12-09T00:38:07.438Z,26.15
2018-12-09T00:40:35.068Z,18.07
2018-12-09T00:43:02.527Z,20.60
2018-12-09T00:45:29.964Z,24.90
2018-12-09T00:47:57.427Z,36.10
2018-12-09T00:50:24.867Z,29.77
2018-12-09T00:52:52.340Z,42.75
2018-12-09T00:55:19.843Z,32.25
2018-12-09T00:57:47.300Z,29.12
2018-12-09T01:00:14.814Z,15.05
2018-12-09T01:02:43.022Z,30.27
2018-12-09T01:05:10.581Z,26.60
2018-12-09T01:07:38.168Z,23.40
2018-12-09T01:10:05.939Z,25.43
2018-12-09T01:12:33.387Z,24.67
2018-12-09T01:15:00.835Z,40.23
2018-12-09T01:17:28.720Z,30.80
2018-12-09T01:19:56.214Z,26.48
2018-12-09T01:22:23.675Z,30.10
2018-12-09T01:24:51.190Z,28.73
2018-12-09T01:27:19.065Z,26.20
2018-12-09T01:29:46.919Z,25.97
2018-12-09T01:32:14.870Z,36.53
2018-12-09T01:34:42.319Z,23.18
2018-12-09T01:37:09.767Z,24.23
2018-12-09T01:39:37.210Z,25.60
2018-12-09T01:42:04.866Z,31.05
2018-12-09T01:44:32.334Z,40.25
2018-12-09T01:46:59.762Z,26.10
2018-12-09T01:49:27.376Z,34.33
2018-12-09T01:51:54.874Z,21.48
2018-12-09T01:54:22.319Z,32.73
2018-12-09T01:56:49.867Z,37.05
2018-12-09T01:59:17.400Z,21.52
2018-12-09T02:01:44.846Z,28.83
2018-12-09T02:04:12.392Z,25.55
2018-12-09T02:06:39.842Z,22.82
2018-12-09T02:09:07.643Z,32.10
2018-12-09T02:11:35.096Z,22.55
2018-12-09T02:14:02.659Z,19.17
2018-12-09T02:16:30.495Z,23.75
2018-12-09T02:19:20.547Z,34.70
2018-12-09T02:21:48.137Z,25.10
2018-12-09T02:24:15.941Z,27.00
2018-12-09T02:26:43.367Z,23.40
2018-12-09T02:29:10.983Z,24.10
2018-12-09T02:31:38.481Z,16.00
2018-12-09T02:34:06.018Z,18.98
2018-12-09T02:36:33.953Z,22.20
2018-12-09T02:39:01.518Z,40.75
2018-12-09T02:41:29.012Z,26.95
2018-12-09T02:43:56.468Z,30.12
2018-12-09T02:46:23.968Z,27.67
2018-12-09T02:48:51.716Z,37.17
2018-12-09T02:51:19.257Z,22.15
2018-12-09T02:53:46.878Z,14.83
2018-12-09T02:56:14.503Z,20.10
2018-12-09T02:58:42.489Z,24.18
2018-12-09T03:01:09.936Z,35.38
2018-12-09T03:03:37.443Z,20.70
2018-12-09T03:06:04.954Z,49.98
2018-12-09T03:08:32.405Z,19.82
2018-12-09T03:11:00.030Z,21.68
2018-12-09T03:13:27.625Z,17.50
2018-12-09T03:15:55.263Z,18.20
2018-12-09T03:18:22.720Z,26.70
2018-12-09T03:20:50.824Z,21.42
2018-12-09T03:23:18.379Z,25.80
2018-12-09T03:25:45.818Z,31.68
2018-12-09T03:28:13.271Z,23.07
2018-12-09T03:30:40.735Z,28.67
2018-12-09T03:33:08.184Z,19.60
2018-12-09T03:35:35.716Z,19.60
2018-12-09T03:38:03.166Z,16.77
2018-12-09T03:40:30.603Z,17.70
2018-12-09T03:42:58.075Z,16.60
2018-12-09T03:45:25.520Z,13.48
2018-12-09T03:47:52.953Z,15.10
2018-12-09T03:50:20.613Z,25.55
2018-12-09T03:52:48.045Z,15.43
2018-12-09T03:55:15.567Z,7.37
2018-12-09T03:57:43.002Z,7.78
2018-12-09T04:00:10.520Z,12.88
2018-12-09T04:02:38.015Z,5.80
2018-12-09T04:05:05.599Z,8.05
2018-12-09T04:07:33.031Z,10.75
2018-12-09T04:10:01.241Z,8.25
2018-12-09T04:12:28.791Z,11.33
2018-12-09T04:14:56.237Z,15.90
2018-12-09T04:17:23.784Z,8.83
2018-12-09T04:19:51.235Z,13.45
2018-12-09T04:22:18.726Z,9.93
2018-12-09T04:24:46.262Z,18.30
2018-12-09T04:27:13.699Z,8.45
2018-12-09T04:29:41.195Z,11.63
2018-12-09T04:32:09.147Z,11.48
2018-12-09T04:34:36.638Z,13.60
2018-12-09T04:37:04.086Z,17.98
2018-12-09T04:39:31.585Z,9.13
2018-12-09T04:41:59.038Z,14.98
2018-12-09T04:44:26.462Z,7.37
2018-12-09T04:46:53.918Z,15.05
2018-12-09T04:49:21.361Z,20.23
2018-12-09T04:51:54.370Z,13.40
2018-12-09T04:54:21.870Z,14.18
2018-12-09T04:56:49.314Z,11.78
2018-12-09T04:59:19.170Z,20.27
2018-12-09T05:01:46.943Z,16.82
2018-12-09T05:04:14.962Z,16.73
2018-12-09T05:06:42.444Z,31.20
2018-12-09T05:09:10.022Z,42.50
2018-12-09T05:11:37.484Z,26.75
2018-12-09T05:14:05.283Z,23.22
2018-12-09T05:16:32.735Z,19.55
2018-12-09T05:19:00.296Z,33.05
2018-12-09T05:21:27.904Z,20.48
2018-12-09T05:23:55.344Z,25.88
2018-12-09T05:26:23.262Z,37.67
2018-12-09T05:28:50.793Z,18.98
2018-12-09T05:31:18.238Z,16.65
2018-12-09T05:33:45.670Z,19.20
2018-12-09T05:36:13.126Z,21.37
2018-12-09T05:38:40.975Z,26.40
2018-12-09T05:41:08.503Z,29.42
2018-12-09T05:43:36.059Z,23.47
2018-12-09T05:46:03.502Z,29.42
2018-12-09T05:48:30.955Z,15.50
2018-12-09T05:50:58.487Z,30.48
2018-12-09T05:53:25.946Z,19.37
2018-12-09T05:55:53.390Z,36.35
2018-12-09T05:58:22.906Z,37.78
2018-12-09T06:00:50.362Z,41.23
2018-12-09T06:03:18.149Z,21.57
2018-12-09T06:05:46.299Z,26.10
2018-12-09T06:08:13.747Z,23.20
2018-12-09T06:10:41.199Z,28.83
2018-12-09T06:13:08.767Z,42.95
2018-12-09T06:15:36.254Z,23.80
2018-12-09T06:18:03.778Z,37.78
2018-12-09T06:20:31.221Z,24.00
2018-12-09T06:22:58.669Z,33.85
2018-12-09T06:25:26.113Z,25.92
2018-12-09T06:27:53.765Z,35.25
2018-12-09T06:30:21.206Z,27.98
2018-12-09T06:32:48.651Z,32.38
2018-12-09T06:35:16.090Z,26.70
2018-12-09T06:37:43.546Z,21.05
2018-12-09T06:40:10.987Z,16.90
2018-12-09T06:42:38.443Z,17.75
2018-12-09T06:45:06.211Z,22.93
2018-12-09T06:47:33.639Z,30.25
2018-12-09T06:50:01.355Z,26.05
2018-12-09T06:52:28.750Z,16.80
2018-12-09T06:54:56.638Z,14.78
2018-12-09T06:57:25.042Z,22.05
2018-12-09T06:59:52.495Z,22.27
2018-12-09T07:02:45.326Z,32.67
2018-12-09T07:05:13.088Z,22.22
2018-12-09T07:07:40.547Z,17.27
2018-12-09T07:10:08.048Z,20.00
2018-12-09T07:12:35.494Z,15.38
2018-12-09T07:15:03.006Z,26.07
2018-12-09T07:17:30.642Z,28.73
2018-12-09T07:19:58.107Z,19.32
2018-12-09T07:22:25.638Z,22.07
2018-12-09T07:24:53.087Z,21.00
2018-12-09T07:27:20.597Z,10.05
2018-12-09T07:29:48.458Z,14.40
2018-12-09T07:32:15.897Z,13.22
2018-12-09T07:34:43.352Z,19.02
2018-12-09T07:37:10.900Z,19.70
2018-12-09T07:39:38.463Z,21.50
2018-12-09T07:42:06.004Z,20.52
2018-12-09T07:44:33.559Z,23.00
2018-12-09T07:47:10.841Z,11.03
2018-12-09T07:49:38.780Z,17.77
2018-12-09T07:52:06.243Z,16.95
2018-12-09T07:54:42.630Z,19.35
2018-12-09T07:57:16.744Z,12.98
2018-12-09T07:59:48.150Z,30.02
2018-12-09T08:02:15.713Z,12.80
2018-12-09T08:04:43.180Z,23.07
2018-12-09T08:07:10.630Z,19.12
2018-12-09T08:09:38.077Z,25.72
2018-12-09T08:12:05.851Z,20.12
2018-12-09T08:14:33.518Z,9.70
2018-12-09T08:17:01.222Z,32.03
2018-12-09T08:19:28.699Z,17.90
2018-12-09T08:21:56.160Z,24.75
2018-12-09T08:24:23.997Z,20.05
2018-12-09T08:26:51.994Z,16.48
2018-12-09T08:29:19.433Z,47.10
2018-12-09T08:31:47.061Z,23.25
2018-12-09T08:34:14.926Z,23.42
2018-12-09T08:36:42.802Z,22.02
2018-12-09T08:39:10.950Z,22.95
2018-12-09T08:41:39.365Z,18.45
2018-12-09T08:44:07.253Z,12.73
2018-12-09T08:46:35.284Z,24.00
2018-12-09T08:49:02.751Z,24.50
2018-12-09T08:51:30.216Z,74.53
2018-12-09T08:53:57.906Z,83.07
2018-12-09T08:56:25.636Z,59.58
2018-12-09T08:58:53.167Z,121.60
2018-12-09T09:01:20.875Z,60.40
2018-12-09T09:03:49.461Z,50.80
2018-12-09T09:06:16.924Z,104.47
2018-12-09T09:08:46.646Z,31.05
2018-12-09T09:11:15.403Z,51.63
2018-12-09T09:13:42.863Z,28.87
2018-12-09T09:16:10.356Z,38.42
2018-12-09T09:18:38.145Z,26.15
2018-12-09T09:21:05.707Z,13.65
2018-12-09T09:23:33.156Z,8.45
2018-12-09T09:26:00.587Z,9.63
2018-12-09T09:28:28.043Z,14.80
2018-12-09T09:30:55.490Z,11.30
2018-12-09T09:33:22.943Z,23.65
2018-12-09T09:35:50.399Z,20.10
2018-12-09T09:38:17.876Z,19.55
2018-12-09T09:40:45.316Z,17.00
2018-12-09T09:43:12.857Z,10.72
2018-12-09T09:45:40.298Z,14.30
2018-12-09T09:48:07.814Z,19.85
2018-12-09T09:50:35.274Z,16.35
2018-12-09T09:53:02.729Z,20.92
2018-12-09T09:55:30.175Z,18.40
2018-12-09T09:57:58.075Z,21.60
2018-12-09T10:00:25.522Z,14.98
2018-12-09T10:02:52.975Z,17.85
2018-12-09T10:05:21.239Z,19.10
2018-12-09T10:07:49.253Z,24.63
2018-12-09T10:10:18.453Z,27.82
2018-12-09T10:12:46.221Z,16.82
2018-12-09T10:15:14.377Z,26.42
2018-12-09T10:17:42.462Z,20.35
2018-12-09T10:20:10.608Z,17.20
2018-12-09T10:22:39.939Z,20.23
2018-12-09T10:25:07.446Z,13.85
2018-12-09T10:27:35.431Z,21.57
2018-12-09T10:30:03.557Z,23.32
2018-12-09T10:32:31.207Z,16.57
2018-12-09T10:34:58.846Z,23.35
2018-12-09T10:37:27.611Z,27.82
2018-12-09T10:39:55.751Z,7.45
2018-12-09T10:42:23.925Z,16.52
2018-12-09T10:44:51.413Z,22.90
2018-12-09T10:47:18.954Z,12.68
2018-12-09T10:49:46.475Z,18.95
2018-12-09T10:52:13.963Z,9.38
2018-12-09T10:54:41.430Z,10.60
2018-12-09T10:57:09.456Z,12.07
2018-12-09T10:59:36.966Z,10.45
2018-12-09T11:02:10.124Z,10.50
2018-12-09T11:04:37.811Z,9.40
2018-12-09T11:07:05.294Z,5.90
2018-12-09T11:09:32.768Z,6.45
2018-12-09T11:12:00.537Z,9.63
2018-12-09T11:14:28.019Z,14.45
2018-12-09T11:16:55.454Z,9.13
2018-12-09T11:19:22.915Z,8.18
2018-12-09T11:21:51.200Z,4.33
2018-12-09T11:24:18.644Z,7.75
2018-12-09T11:26:46.080Z,6.58
2018-12-09T11:29:13.534Z,4.42
2018-12-09T11:31:40.974Z,3.65
2018-12-09T11:34:08.435Z,4.55
2018-12-09T11:36:35.901Z,4.53
2018-12-09T11:39:04.663Z,2.17
2018-12-09T11:41:32.506Z,2.10
2018-12-09T11:43:59.965Z,2.08
2018-12-09T11:46:27.409Z,1.20
2018-12-09T11:48:54.847Z,2.72
2018-12-09T11:51:23.007Z,1.05
2018-12-09T11:53:50.459Z,5.08
2018-12-09T11:56:17.915Z,4.05
2018-12-09T11:58:45.353Z,5.28
2018-12-09T12:01:12.829Z,1.92
2018-12-09T12:03:40.328Z,4.05
2018-12-09T12:06:08.425Z,12.73
2018-12-09T12:08:35.926Z,4.53
2018-12-09T12:11:03.403Z,13.98
2018-12-09T12:13:30.895Z,79.15
2018-12-09T12:15:58.359Z,58.33
2018-12-09T12:18:25.818Z,48.17
2018-12-09T12:20:53.342Z,9.40
2018-12-09T12:23:20.794Z,14.23
2018-12-09T12:25:48.251Z,5.30
2018-12-09T12:28:16.252Z,14.07
2018-12-09T12:30:43.702Z,7.90
2018-12-09T12:33:11.682Z,9.80
2018-12-09T12:35:39.147Z,16.87
2018-12-09T12:38:06.596Z,15.28
2018-12-09T12:40:34.067Z,10.82
2018-12-09T12:43:01.588Z,11.22
2018-12-09T12:45:29.135Z,18.20
2018-12-09T12:47:56.704Z,15.05
2018-12-09T12:50:24.207Z,15.88
2018-12-09T12:52:51.780Z,13.08
2018-12-09T12:55:19.218Z,10.72
2018-12-09T12:57:46.709Z,10.75
2018-12-09T13:00:14.883Z,17.70
2018-12-09T13:02:42.449Z,24.67
2018-12-09T13:05:09.895Z,11.88
2018-12-09T13:07:37.425Z,2.45
2018-12-09T13:10:05.906Z,4.00
2018-12-09T13:12:33.357Z,3.70
2018-12-09T13:15:00.789Z,2.95
2018-12-09T13:17:28.282Z,2.15
2018-12-09T13:19:55.719Z,1.25
2018-12-09T13:22:23.257Z,5.00
2018-12-09T13:24:50.752Z,3.70
2018-12-09T13:27:18.203Z,8.58
2018-12-09T13:29:45.706Z,7.87
2018-12-09T13:32:13.147Z,4.20
2018-12-09T13:34:40.682Z,3.52
2018-12-09T13:37:08.193Z,7.22
2018-12-09T13:39:35.699Z,5.10
2018-12-09T13:42:03.198Z,3.85
2018-12-09T13:44:30.650Z,5.67
2018-12-09T13:46:58.074Z,7.78
2018-12-09T13:49:25.527Z,10.28
2018-12-09T13:51:53.050Z,5.28
2018-12-09T13:54:20.518Z,4.35
2018-12-09T13:56:48.029Z,4.65
2018-12-09T13:59:15.520Z,4.95
2018-12-09T14:01:42.957Z,5.20
2018-12-09T14:04:10.617Z,3.72
2018-12-09T14:06:38.190Z,7.08
2018-12-09T14:09:06.059Z,4.50
2018-12-09T14:11:33.531Z,9.10
2018-12-09T14:14:01.011Z,7.35
2018-12-09T14:16:28.459Z,4.50
2018-12-09T14:18:55.896Z,7.17
2018-12-09T14:21:23.348Z,20.90
2018-12-09T14:23:50.788Z,3.80
2018-12-09T14:26:18.235Z,5.92
2018-12-09T14:28:45.838Z,11.18
2018-12-09T14:31:13.339Z,6.60
2018-12-09T14:33:40.775Z,13.48
2018-12-09T14:36:08.214Z,4.00
2018-12-09T14:38:35.655Z,6.30
2018-12-09T14:41:03.111Z,10.68
2018-12-09T14:43:30.543Z,7.75
2018-12-09T14:45:58.071Z,13.75
2018-12-09T14:48:25.522Z,5.03
2018-12-09T14:50:53.016Z,5.55
2018-12-09T14:53:20.453Z,9.70
2018-12-09T14:55:47.987Z,12.28
2018-12-09T14:58:15.407Z,10.28
2018-12-09T15:00:42.879Z,9.03
2018-12-09T15:03:10.307Z,14.43
2018-12-09T15:05:37.774Z,6.62
2018-12-09T15:08:05.208Z,9.03
2018-12-09T15:10:32.652Z,16.42
2018-12-09T15:13:00.095Z,8.53
2018-12-09T15:15:28.173Z,11.28
2018-12-09T15:17:55.632Z,10.18
2018-12-09T15:20:23.071Z,10.68
2018-12-09T15:22:50.526Z,19.65
2018-12-09T15:25:17.964Z,13.43
2018-12-09T15:27:45.444Z,9.70
2018-12-09T15:30:12.923Z,10.28
2018-12-09T15:32:40.383Z,11.75
2018-12-09T15:35:07.822Z,22.02
2018-12-09T15:37:35.286Z,14.95
2018-12-09T15:40:02.859Z,12.03
2018-12-09T15:42:30.406Z,14.80
2018-12-09T15:44:57.857Z,5.15
2018-12-09T15:47:25.312Z,11.55
2018-12-09T15:49:52.751Z,17.62
2018-12-09T15:52:23.157Z,10.53
2018-12-09T15:54:51.399Z,13.32
2018-12-09T15:57:18.892Z,15.00
2018-12-09T15:59:46.380Z,7.53
2018-12-09T16:02:15.480Z,10.85
2018-12-09T16:04:43.125Z,16.70
2018-12-09T16:07:10.774Z,20.20
2018-12-09T16:09:38.423Z,11.43
2018-12-09T16:12:06.259Z,11.03
2018-12-09T16:14:36.564Z,10.88
2018-12-09T16:17:04.013Z,8.70
2018-12-09T16:19:31.430Z,8.55
2018-12-09T16:21:58.874Z,21.57
2018-12-09T16:24:26.906Z,10.75
2018-12-09T16:26:54.353Z,14.18
2018-12-09T16:29:21.795Z,16.57
2018-12-09T16:31:49.256Z,15.10
2018-12-09T16:34:17.382Z,14.07
2018-12-09T16:36:46.103Z,10.10
2018-12-09T16:39:13.586Z,27.90
2018-12-09T16:41:41.026Z,23.95
2018-12-09T16:44:08.539Z,17.55
2018-12-09T16:46:37.776Z,22.25
2018-12-09T16:49:05.286Z,18.62
2018-12-09T16:51:34.484Z,25.45
2018-12-09T16:54:02.167Z,11.70
2018-12-09T16:56:29.662Z,19.35
2018-12-09T16:58:57.151Z,9.80
2018-12-09T17:01:24.578Z,17.23
2018-12-09T17:03:55.089Z,22.25
2018-12-09T17:06:22.831Z,23.80
2018-12-09T17:08:50.736Z,20.77
2018-12-09T17:11:18.426Z,31.05
2018-12-09T17:13:45.900Z,14.43
2018-12-09T17:16:13.433Z,43.17
2018-12-09T17:18:41.899Z,34.10
2018-12-09T17:21:09.551Z,30.45
2018-12-09T17:23:37.008Z,20.68
2018-12-09T17:26:04.446Z,34.65
2018-12-09T17:28:31.909Z,32.78
2018-12-09T17:30:59.351Z,35.60
2018-12-09T17:33:26.894Z,20.77
2018-12-09T17:35:54.344Z,18.30
2018-12-09T17:38:21.791Z,32.75
2018-12-09T17:40:49.966Z,31.97
2018-12-09T17:45:55.899Z,19.82
2018-12-09T17:48:23.329Z,31.73
2018-12-09T17:50:51.690Z,24.02
2018-12-09T17:53:19.130Z,43.30
2018-12-09T17:55:46.604Z,21.55
2018-12-09T17:58:14.842Z,27.85
2018-12-09T18:00:42.922Z,14.65
2018-12-09T18:03:10.444Z,39.08
2018-12-09T18:05:38.139Z,13.35
2018-12-09T18:08:06.438Z,11.38
2018-12-09T18:10:35.446Z,39.30
2018-12-09T18:13:02.888Z,19.92
2018-12-09T18:15:30.343Z,16.93
2018-12-09T18:17:57.782Z,27.17
2018-12-09T18:20:25.265Z,21.73
2018-12-09T18:22:52.700Z,24.47
2018-12-09T18:25:20.134Z,28.57
2018-12-09T18:27:47.960Z,20.02
2018-12-09T18:30:15.399Z,19.17
2018-12-09T18:32:42.898Z,24.90
2018-12-09T18:35:10.381Z,34.50
2018-12-09T18:37:37.878Z,20.57
2018-12-09T18:40:05.669Z,23.85
2018-12-09T18:42:33.119Z,22.60
2018-12-09T18:45:00.571Z,26.15
2018-12-09T18:47:28.048Z,21.97
2018-12-09T18:49:55.496Z,24.57
2018-12-09T18:52:22.943Z,18.92
2018-12-09T18:54:51.385Z,17.48
2018-12-09T18:57:18.836Z,13.53
2018-12-09T18:59:46.272Z,15.80
2018-12-09T19:02:13.732Z,11.43
2018-12-09T19:04:41.231Z,10.05
2018-12-09T19:07:09.516Z,22.90
2018-12-09T19:09:37.273Z,24.72
2018-12-09T19:12:05.027Z,11.50
2018-12-09T19:14:32.486Z,7.95
2018-12-09T19:16:59.993Z,11.90
2018-12-09T19:19:29.211Z,24.30
2018-12-09T19:21:56.675Z,11.90
2018-12-09T19:24:24.120Z,15.68
2018-12-09T19:26:51.551Z,19.02
2018-12-09T19:29:19.010Z,18.42
2018-12-09T19:31:46.448Z,20.25
2018-12-09T19:34:14.035Z,15.30
2018-12-09T19:36:42.982Z,14.45
2018-12-09T19:39:13.163Z,19.30
2018-12-09T19:41:40.609Z,16.48
2018-12-09T19:44:08.064Z,24.60
2018-12-09T19:46:35.523Z,18.48
2018-12-09T19:49:03.018Z,19.70
2018-12-09T19:51:30.537Z,27.30
2018-12-09T19:53:58.051Z,17.52
2018-12-09T19:56:25.490Z,21.52
2018-12-09T19:58:52.927Z,24.82
2018-12-09T20:01:20.391Z,21.20
2018-12-09T20:03:47.859Z,25.65
2018-12-09T20:06:15.308Z,20.50
2018-12-09T20:08:42.764Z,23.25
2018-12-09T20:11:16.169Z,22.58
2018-12-09T20:13:44.850Z,41.63
2018-12-09T20:16:12.295Z,29.45
2018-12-09T20:18:39.739Z,27.48
2018-12-09T20:21:07.229Z,26.65
2018-12-09T20:23:34.814Z,28.35
2018-12-09T20:26:02.255Z,25.40
2018-12-09T20:28:29.741Z,31.62
2018-12-09T20:30:58.804Z,23.05
2018-12-09T20:33:26.304Z,32.15
2018-12-09T20:35:53.919Z,42.43
2018-12-09T20:38:22.238Z,63.48
2018-12-09T20:40:49.677Z,17.07
2018-12-09T20:43:19.502Z,27.02
2018-12-09T20:45:46.974Z,45.30
2018-12-09T20:48:14.424Z,28.77
2018-12-09T20:50:41.880Z,45.58
2018-12-09T20:53:09.349Z,23.75
2018-12-09T20:55:36.782Z,30.40
2018-12-09T20:58:04.234Z,37.33
2018-12-09T21:00:32.878Z,28.23
2018-12-09T21:03:00.319Z,21.65
2018-12-09T21:05:28.588Z,24.15
2018-12-09T21:07:56.115Z,28.62
2018-12-09T21:10:24.543Z,35.08
2018-12-09T21:12:53.967Z,29.65
2018-12-09T21:15:21.557Z,29.63
2018-12-09T21:17:48.995Z,10.45
2018-12-09T21:20:16.438Z,19.30
2018-12-09T21:22:43.879Z,19.52
2018-12-09T21:25:11.336Z,10.08
2018-12-09T21:27:38.774Z,32.10
2018-12-09T21:30:06.455Z,14.80
2018-12-09T21:32:33.894Z,14.63
2018-12-09T21:35:01.994Z,25.37
2018-12-09T21:37:29.486Z,32.15
2018-12-09T21:39:57.759Z,74.40
2018-12-09T21:42:25.207Z,44.30
2018-12-09T21:44:52.666Z,34.50
2018-12-09T21:47:20.107Z,53.92
2018-12-09T21:49:47.559Z,76.42
2018-12-09T21:52:15.987Z,37.58
2018-12-09T21:54:44.337Z,29.20
2018-12-09T21:57:11.765Z,22.85
2018-12-09T21:59:39.234Z,30.85
2018-12-09T22:02:07.322Z,20.15
2018-12-09T22:04:35.702Z,32.30
2018-12-09T22:07:03.166Z,43.85
2018-12-09T22:09:30.598Z,29.85
2018-12-09T22:11:59.657Z,28.75
2018-12-09T22:14:28.505Z,27.10
2018-12-09T22:16:56.576Z,38.00
2018-12-09T22:19:24.043Z,33.80
2018-12-09T22:21:51.489Z,25.15
2018-12-09T22:24:18.928Z,28.60
2018-12-09T22:26:46.382Z,48.10
2018-12-09T22:29:13.830Z,34.45
2018-12-09T22:31:41.263Z,33.10
2018-12-09T22:34:08.810Z,21.73
2018-12-09T22:36:36.255Z,32.90
2018-12-09T22:39:05.976Z,24.75
2018-12-09T22:41:36.772Z,13.62
2018-12-09T22:46:42.494Z,31.45
2018-12-09T22:49:12.035Z,42.88
2018-12-09T22:51:42.871Z,46.08
2018-12-09T22:54:12.022Z,43.73
2018-12-09T22:56:39.459Z,41.50
2018-12-09T22:59:06.906Z,21.65
2018-12-09T23:01:34.344Z,27.37
2018-12-09T23:04:01.868Z,25.52
2018-12-09T23:06:29.382Z,11.95
2018-12-09T23:08:56.835Z,16.32
2018-12-09T23:11:24.280Z,61.75
2018-12-09T23:14:02.733Z,21.27
2018-12-09T23:16:30.161Z,15.15
2018-12-09T23:18:57.636Z,12.33
2018-12-09T23:21:25.084Z,14.53
2018-12-09T23:23:52.528Z,20.10
2018-12-09T23:26:19.985Z,10.65
2018-12-09T23:28:47.486Z,18.27
2018-12-09T23:31:15.804Z,26.90
2018-12-09T23:33:43.249Z,29.27
2018-12-09T23:36:10.697Z,20.12
2018-12-09T23:38:38.150Z,25.30
2018-12-09T23:41:05.606Z,22.10
2018-12-09T23:43:33.047Z,19.32
2018-12-09T23:46:00.640Z,29.15
2018-12-09T23:48:28.171Z,13.93
2018-12-09T23:50:55.610Z,23.10
2018-12-09T23:53:23.068Z,15.78
2018-12-09T23:55:50.525Z,24.23
2018-12-09T23:58:17.993Z,24.50
